Time;durP1;ratioP1;P1;durP2;ratioP2;P2;SDS_P1;SDS_P2;PMS_P1;PMS_P2;Temp;Humidity;BMP_temperature;BMP_pressure;BME280_temperature;BME280_humidity;BME280_pressure;Samples;Min_cycle;Max_cycle;Signal;HPM_P1;HPM_P2
2024/01/21 00:02:14;;;;;;;17.10;13.37;;;0.50;99.90;;;;;;5068627;28;20092;-68
2024/01/21 00:04:40;;;;;;;17.67;13.90;;;0.50;99.90;;;;;;5085979;28;20040;-68
2024/01/21 00:07:07;;;;;;;15.47;13.23;;;0.50;99.90;;;;;;5089106;28;20044;-68
2024/01/21 00:09:33;;;;;;;16.00;13.97;;;0.50;99.90;;;;;;5090520;28;20547;-68
2024/01/21 00:11:58;;;;;;;15.03;12.73;;;0.50;99.90;;;;;;5086323;28;20142;-68
2024/01/21 00:14:24;;;;;;;15.53;13.40;;;0.50;99.90;;;;;;5093930;28;20072;-68
2024/01/21 00:16:50;;;;;;;16.93;14.20;;;0.50;99.90;;;;;;5086595;28;20042;-68
2024/01/21 00:19:16;;;;;;;18.47;13.60;;;0.50;99.90;;;;;;5072302;28;20280;-68
2024/01/21 00:21:42;;;;;;;17.43;13.53;;;0.40;99.90;;;;;;5093204;28;20027;-68
2024/01/21 00:24:07;;;;;;;16.43;13.87;;;0.50;99.90;;;;;;5092382;28;20036;-68
2024/01/21 00:26:33;;;;;;;16.43;13.83;;;0.40;99.90;;;;;;5094624;28;20443;-67
2024/01/21 00:29:00;;;;;;;16.70;13.53;;;0.40;99.90;;;;;;5090016;28;20420;-67
2024/01/21 00:31:30;;;;;;;16.57;13.00;;;0.40;99.90;;;;;;5087273;28;20512;-69
2024/01/21 00:33:58;;;;;;;15.83;13.17;;;0.40;99.90;;;;;;5108520;27;20130;-67
2024/01/21 00:36:24;;;;;;;16.93;13.43;;;0.40;99.90;;;;;;5091948;28;20113;-67
2024/01/21 00:38:49;;;;;;;16.40;13.57;;;0.40;99.90;;;;;;5090452;28;20139;-67
2024/01/21 00:41:15;;;;;;;17.00;13.63;;;0.30;99.90;;;;;;5089149;28;20615;-67
2024/01/21 00:43:41;;;;;;;16.37;14.00;;;0.30;99.90;;;;;;5088345;28;20039;-67
2024/01/21 00:46:08;;;;;;;14.83;13.00;;;0.30;99.90;;;;;;5089359;28;20047;-67
2024/01/21 00:48:34;;;;;;;17.10;13.90;;;0.20;99.90;;;;;;5092192;28;20059;-67
2024/01/21 00:51:03;;;;;;;16.40;13.70;;;0.20;99.90;;;;;;5075479;28;20555;-68
2024/01/21 00:53:29;;;;;;;15.73;13.30;;;0.20;99.90;;;;;;5086317;28;20890;-68
2024/01/21 00:55:54;;;;;;;15.77;12.93;;;0.20;99.90;;;;;;5107298;28;20048;-68
2024/01/21 00:58:23;;;;;;;14.33;12.47;;;0.20;99.90;;;;;;5086386;28;20058;-67
2024/01/21 01:00:49;;;;;;;14.37;12.60;;;0.20;99.90;;;;;;5098040;28;20599;-66
2024/01/21 01:03:14;;;;;;;17.20;12.73;;;0.20;99.90;;;;;;5070973;28;20358;-69
2024/01/21 01:05:40;;;;;;;15.93;12.83;;;0.20;99.90;;;;;;5089498;28;20248;-69
2024/01/21 01:08:06;;;;;;;18.07;14.00;;;0.20;99.90;;;;;;5070008;28;20047;-69
2024/01/21 01:10:32;;;;;;;15.30;13.70;;;0.20;99.90;;;;;;5090119;28;20546;-67
2024/01/21 01:12:58;;;;;;;17.47;12.60;;;0.30;99.90;;;;;;5089571;28;20047;-67
2024/01/21 01:15:24;;;;;;;17.53;13.23;;;0.30;99.90;;;;;;5086091;28;20043;-67
2024/01/21 01:17:51;;;;;;;16.93;13.93;;;0.30;99.90;;;;;;5097113;28;20092;-68
2024/01/21 01:20:17;;;;;;;17.20;14.00;;;0.30;99.90;;;;;;5092374;28;20054;-68
2024/01/21 01:22:43;;;;;;;17.20;13.43;;;0.30;99.90;;;;;;5081871;28;20051;-67
2024/01/21 01:25:09;;;;;;;17.00;13.20;;;0.40;99.90;;;;;;5083285;28;20592;-68
2024/01/21 01:27:35;;;;;;;16.03;12.90;;;0.40;99.90;;;;;;5069089;28;20039;-67
2024/01/21 01:30:01;;;;;;;16.97;12.57;;;0.40;99.90;;;;;;5095078;28;20089;-67
2024/01/21 01:32:26;;;;;;;16.47;12.80;;;0.40;99.90;;;;;;5087979;28;20059;-68
2024/01/21 01:34:54;;;;;;;14.33;12.00;;;0.40;99.90;;;;;;5086201;28;20122;-68
2024/01/21 01:37:21;;;;;;;15.50;12.03;;;0.40;99.90;;;;;;5071327;28;20042;-68
2024/01/21 01:39:47;;;;;;;14.37;11.33;;;0.40;99.90;;;;;;5089882;28;20177;-67
2024/01/21 01:42:13;;;;;;;12.87;11.23;;;0.40;99.90;;;;;;5087218;28;20130;-68
2024/01/21 01:44:40;;;;;;;14.37;11.43;;;0.40;99.90;;;;;;5072166;28;20622;-67
2024/01/21 01:47:09;;;;;;;15.57;10.60;;;0.40;99.90;;;;;;5087588;28;20051;-68
2024/01/21 01:49:40;;;;;;;14.37;10.97;;;0.50;99.90;;;;;;5090893;28;20143;-68
2024/01/21 01:52:07;;;;;;;15.80;11.73;;;0.50;99.90;;;;;;5076157;28;20046;-67
2024/01/21 01:54:34;;;;;;;13.70;10.57;;;0.50;99.90;;;;;;5073486;28;20054;-68
2024/01/21 01:57:03;;;;;;;16.53;10.40;;;0.60;99.90;;;;;;5088438;28;20044;-67
2024/01/21 01:59:31;;;;;;;14.67;10.53;;;0.60;99.90;;;;;;5071444;28;20047;-68
2024/01/21 02:01:58;;;;;;;13.37;10.37;;;0.60;99.90;;;;;;5076066;28;20123;-68
2024/01/21 02:04:24;;;;;;;13.73;9.37;;;0.60;99.90;;;;;;5094970;28;20031;-70
2024/01/21 02:06:52;;;;;;;12.23;9.70;;;0.60;99.90;;;;;;5085996;28;20032;-67
2024/01/21 02:09:18;;;;;;;12.00;10.03;;;0.60;99.90;;;;;;5070126;28;20039;-68
2024/01/21 02:11:43;;;;;;;12.97;9.73;;;0.60;99.90;;;;;;5083040;28;20099;-68
2024/01/21 02:14:10;;;;;;;14.73;9.93;;;0.60;99.90;;;;;;5088691;28;20491;-68
2024/01/21 02:16:36;;;;;;;10.85;8.60;;;0.60;99.90;;;;;;5103905;28;20182;-68
2024/01/21 02:19:06;;;;;;;14.73;9.63;;;0.60;99.90;;;;;;5069464;28;20134;-68
2024/01/21 02:21:32;;;;;;;12.60;8.77;;;0.70;99.90;;;;;;5086139;28;20052;-68
2024/01/21 02:23:57;;;;;;;13.17;7.80;;;0.60;99.90;;;;;;5069824;28;20050;-68
2024/01/21 02:26:23;;;;;;;12.50;8.90;;;0.60;99.90;;;;;;5085042;28;20468;-67
2024/01/21 02:28:49;;;;;;;12.17;8.20;;;0.60;99.90;;;;;;5086868;28;20032;-68
2024/01/21 02:31:15;;;;;;;11.50;8.20;;;0.60;99.90;;;;;;5079537;28;20044;-68
2024/01/21 02:33:40;;;;;;;12.87;8.00;;;0.60;99.90;;;;;;5073226;28;20036;-68
2024/01/21 02:36:06;;;;;;;12.90;7.93;;;0.70;99.90;;;;;;5087907;28;20039;-67
2024/01/21 02:38:32;;;;;;;10.23;7.33;;;0.70;99.90;;;;;;5093267;28;20142;-67
2024/01/21 02:40:57;;;;;;;9.17;7.07;;;0.70;99.90;;;;;;5087020;28;20047;-67
2024/01/21 02:43:23;;;;;;;9.30;6.60;;;0.70;99.90;;;;;;5084124;28;20408;-67
2024/01/21 02:45:49;;;;;;;10.40;6.87;;;0.70;99.90;;;;;;5089680;28;20043;-68
2024/01/21 02:48:15;;;;;;;9.60;6.50;;;0.80;99.90;;;;;;5085126;28;21142;-67
2024/01/21 02:50:40;;;;;;;10.63;6.90;;;0.80;99.90;;;;;;5090484;28;20104;-67
2024/01/21 02:53:06;;;;;;;9.30;6.83;;;0.90;99.90;;;;;;5095039;28;20441;-67
2024/01/21 02:55:32;;;;;;;8.77;6.90;;;0.90;99.90;;;;;;5080979;28;20085;-67
2024/01/21 02:57:58;;;;;;;9.80;6.13;;;0.90;99.90;;;;;;5083328;28;20036;-67
2024/01/21 03:00:23;;;;;;;9.80;6.05;;;0.90;99.90;;;;;;5072138;28;20047;-67
2024/01/21 03:02:52;;;;;;;8.07;5.33;;;0.90;99.90;;;;;;5061387;28;20040;-68
2024/01/21 03:05:18;;;;;;;8.00;5.63;;;0.90;99.90;;;;;;5081320;28;20513;-68
2024/01/21 03:07:46;;;;;;;8.27;5.53;;;1.00;99.90;;;;;;5069509;28;20052;-68
2024/01/21 03:10:12;;;;;;;8.00;5.33;;;1.00;99.90;;;;;;5070454;28;20047;-68
2024/01/21 03:12:38;;;;;;;7.93;5.30;;;1.00;99.90;;;;;;5078624;28;20047;-68
2024/01/21 03:15:04;;;;;;;9.40;5.07;;;1.10;99.90;;;;;;5067701;28;20035;-68
2024/01/21 03:17:30;;;;;;;6.55;4.40;;;1.10;99.90;;;;;;5104606;28;20048;-69
2024/01/21 03:19:56;;;;;;;7.43;5.07;;;1.20;99.90;;;;;;5085727;28;20070;-68
2024/01/21 03:22:21;;;;;;;8.37;5.27;;;1.10;99.90;;;;;;5068932;28;20063;-68
2024/01/21 03:24:47;;;;;;;7.53;4.93;;;1.10;99.90;;;;;;5081089;28;20031;-68
2024/01/21 03:27:13;;;;;;;8.80;4.70;;;1.20;99.90;;;;;;5084450;28;20519;-67
2024/01/21 03:29:39;;;;;;;8.97;5.47;;;1.10;99.90;;;;;;5082559;28;20067;-67
2024/01/21 03:32:05;;;;;;;6.87;4.80;;;1.20;99.90;;;;;;5084515;28;20346;-67
2024/01/21 03:34:31;;;;;;;6.80;4.67;;;1.10;99.90;;;;;;5093207;28;20043;-69
2024/01/21 03:36:57;;;;;;;7.73;4.87;;;1.20;99.90;;;;;;5068978;28;20063;-69
2024/01/21 03:39:22;;;;;;;7.22;4.68;;;1.20;99.90;;;;;;5079703;27;20954;-67
2024/01/21 03:41:48;;;;;;;7.97;4.70;;;1.20;99.90;;;;;;5077538;28;20514;-67
2024/01/21 03:44:14;;;;;;;5.77;4.27;;;1.20;99.90;;;;;;5088194;28;20047;-67
2024/01/21 03:46:40;;;;;;;8.17;4.40;;;1.20;99.90;;;;;;5087557;28;20039;-67
2024/01/21 03:49:06;;;;;;;6.90;4.32;;;1.10;99.90;;;;;;5066635;28;20044;-69
2024/01/21 03:51:32;;;;;;;8.18;4.05;;;1.20;99.90;;;;;;5085801;28;20036;-68
2024/01/21 03:53:57;;;;;;;6.43;4.03;;;1.20;99.90;;;;;;5073547;28;20048;-68
2024/01/21 03:56:23;;;;;;;7.03;4.17;;;1.20;99.90;;;;;;5095965;28;20054;-69
2024/01/21 03:58:49;;;;;;;7.27;4.37;;;1.10;99.90;;;;;;5092043;28;20516;-68
2024/01/21 04:01:15;;;;;;;6.90;4.17;;;1.20;99.90;;;;;;5088283;28;20051;-68
2024/01/21 04:03:41;;;;;;;5.18;3.60;;;1.10;99.90;;;;;;5087379;28;20045;-68
2024/01/21 04:06:06;;;;;;;6.97;3.63;;;1.20;99.90;;;;;;5089054;28;20036;-68
2024/01/21 04:08:33;;;;;;;5.95;3.90;;;1.30;99.90;;;;;;5075196;28;20401;-68
2024/01/21 04:10:59;;;;;;;5.78;3.28;;;1.20;99.90;;;;;;5092798;28;20512;-68
2024/01/21 04:13:27;;;;;;;6.93;3.50;;;1.20;99.90;;;;;;5100572;28;20380;-68
2024/01/21 04:15:53;;;;;;;5.00;3.13;;;1.30;99.90;;;;;;5087168;28;20040;-67
2024/01/21 04:18:19;;;;;;;7.33;3.73;;;1.30;99.90;;;;;;5104618;28;20503;-68
2024/01/21 04:20:45;;;;;;;5.50;3.37;;;1.30;99.70;;;;;;5097024;28;20050;-68
2024/01/21 04:23:10;;;;;;;5.67;3.30;;;1.30;99.60;;;;;;5074274;28;20139;-70
2024/01/21 04:25:36;;;;;;;6.03;3.43;;;1.30;99.80;;;;;;5089214;28;20489;-68
2024/01/21 04:28:02;;;;;;;6.27;3.00;;;1.20;99.70;;;;;;5094708;28;20709;-68
2024/01/21 04:30:28;;;;;;;6.80;3.63;;;1.30;99.40;;;;;;5086526;28;20071;-68
2024/01/21 04:32:54;;;;;;;4.53;3.20;;;1.30;99.00;;;;;;5077636;28;20055;-68
2024/01/21 04:35:20;;;;;;;4.95;3.10;;;1.30;98.90;;;;;;5089559;28;20051;-68
2024/01/21 04:37:46;;;;;;;5.20;2.80;;;1.30;98.30;;;;;;5090271;28;20683;-67
2024/01/21 04:40:12;;;;;;;5.28;3.13;;;1.30;98.30;;;;;;5085739;28;20059;-68
2024/01/21 04:42:38;;;;;;;4.25;2.92;;;1.20;98.30;;;;;;5092872;28;20042;-68
2024/01/21 04:45:04;;;;;;;5.80;3.22;;;1.30;97.80;;;;;;5087383;28;20035;-68
2024/01/21 04:47:29;;;;;;;6.43;3.27;;;1.20;98.30;;;;;;5073206;28;20096;-68
2024/01/21 04:49:55;;;;;;;6.00;2.97;;;1.20;98.00;;;;;;5087686;28;20036;-67
2024/01/21 04:52:21;;;;;;;4.87;3.03;;;1.20;98.00;;;;;;5094094;28;20040;-68
2024/01/21 04:54:47;;;;;;;6.40;3.07;;;1.20;97.40;;;;;;5076054;28;20035;-68
2024/01/21 04:57:13;;;;;;;6.15;3.08;;;1.30;97.40;;;;;;5069106;28;20494;-68
2024/01/21 04:59:38;;;;;;;5.70;3.10;;;1.30;96.90;;;;;;5089774;28;20235;-68
2024/01/21 05:02:04;;;;;;;5.38;3.00;;;1.30;96.50;;;;;;5065420;28;20127;-68
2024/01/21 05:04:30;;;;;;;7.55;3.17;;;1.40;96.90;;;;;;5071293;28;20095;-68
2024/01/21 05:06:56;;;;;;;5.60;3.13;;;1.30;96.80;;;;;;5088459;28;20040;-67
2024/01/21 05:09:22;;;;;;;4.63;2.80;;;1.40;96.30;;;;;;5092062;28;20112;-67
2024/01/21 05:11:47;;;;;;;5.13;2.65;;;1.40;96.30;;;;;;5085789;28;20509;-67
2024/01/21 05:14:13;;;;;;;5.35;3.08;;;1.30;96.30;;;;;;5084377;28;20082;-67
2024/01/21 05:16:40;;;;;;;5.32;3.30;;;1.30;95.80;;;;;;5066156;28;20043;-67
2024/01/21 05:19:05;;;;;;;5.53;3.08;;;1.40;95.90;;;;;;5081382;28;20062;-68
2024/01/21 05:21:32;;;;;;;5.33;2.87;;;1.30;96.00;;;;;;5073051;28;20709;-67
2024/01/21 05:23:57;;;;;;;4.78;3.08;;;1.30;96.00;;;;;;5088265;28;20043;-67
2024/01/21 05:26:23;;;;;;;6.22;3.25;;;1.30;95.80;;;;;;5091264;28;20064;-67
2024/01/21 05:28:49;;;;;;;7.35;3.17;;;1.30;95.50;;;;;;5087397;28;20058;-67
2024/01/21 05:31:15;;;;;;;5.40;3.45;;;1.30;96.00;;;;;;5090512;28;20586;-67
2024/01/21 05:33:40;;;;;;;6.00;3.50;;;1.30;95.80;;;;;;5072133;28;20047;-68
2024/01/21 05:36:08;;;;;;;5.50;2.95;;;1.40;95.70;;;;;;5066552;28;20044;-67
2024/01/21 05:38:34;;;;;;;5.47;3.03;;;1.40;95.50;;;;;;5086101;28;20567;-67
2024/01/21 05:40:59;;;;;;;5.30;3.30;;;1.40;95.70;;;;;;5086648;28;20052;-67
2024/01/21 05:43:28;;;;;;;7.20;3.90;;;1.40;95.40;;;;;;5079553;28;20122;-67
2024/01/21 05:45:54;;;;;;;6.20;3.58;;;1.50;95.20;;;;;;5088148;28;20832;-67
2024/01/21 05:48:19;;;;;;;6.20;3.78;;;1.50;95.60;;;;;;5089593;28;20039;-67
2024/01/21 05:50:45;;;;;;;7.07;3.88;;;1.50;95.50;;;;;;5076800;28;20053;-67
2024/01/21 05:53:11;;;;;;;5.90;3.75;;;1.50;95.30;;;;;;5090298;28;20059;-68
2024/01/21 05:55:37;;;;;;;5.60;3.65;;;1.60;95.20;;;;;;5087933;28;20067;-68
2024/01/21 05:58:03;;;;;;;5.75;4.07;;;1.60;95.40;;;;;;5080739;28;20097;-67
2024/01/21 06:00:29;;;;;;;6.00;3.93;;;1.60;95.40;;;;;;5068504;28;20066;-67
2024/01/21 06:02:55;;;;;;;6.40;4.20;;;1.60;95.60;;;;;;5069042;28;20049;-67
2024/01/21 06:05:20;;;;;;;7.43;4.90;;;1.60;95.80;;;;;;5089365;28;20040;-68
2024/01/21 06:07:46;;;;;;;5.90;4.33;;;1.70;96.10;;;;;;5088684;28;20046;-67
2024/01/21 06:10:12;;;;;;;6.83;4.80;;;1.70;96.10;;;;;;5088185;28;20289;-68
2024/01/21 06:12:38;;;;;;;8.23;5.17;;;1.70;96.10;;;;;;5086799;28;20044;-67
2024/01/21 06:15:04;;;;;;;7.33;4.93;;;1.70;96.00;;;;;;5086115;28;20036;-68
2024/01/21 06:17:30;;;;;;;8.17;5.20;;;1.70;96.00;;;;;;5088363;28;20043;-67
2024/01/21 06:19:56;;;;;;;10.30;5.40;;;1.70;96.20;;;;;;5085806;28;20067;-68
2024/01/21 06:22:28;;;;;;;8.25;5.15;;;1.80;96.10;;;;;;5072318;28;20054;-67
2024/01/21 06:24:54;;;;;;;7.80;5.43;;;1.90;95.50;;;;;;5063493;28;20123;-67
2024/01/21 06:27:20;;;;;;;8.18;5.90;;;1.90;95.00;;;;;;5087801;28;20135;-67
2024/01/21 06:29:45;;;;;;;7.85;5.53;;;1.90;95.00;;;;;;5089124;28;20126;-68
2024/01/21 06:32:11;;;;;;;8.05;5.75;;;2.00;94.90;;;;;;5084944;28;20047;-68
2024/01/21 06:34:37;;;;;;;7.47;5.82;;;2.10;94.90;;;;;;5100989;28;20040;-68
2024/01/21 06:37:03;;;;;;;8.43;6.03;;;2.00;95.00;;;;;;5085339;28;20054;-68
2024/01/21 06:39:29;;;;;;;8.13;5.78;;;2.10;94.90;;;;;;5086257;28;20035;-68
2024/01/21 06:41:54;;;;;;;8.47;6.60;;;2.20;94.50;;;;;;5088130;28;20398;-68
2024/01/21 06:44:20;;;;;;;8.55;5.72;;;2.10;94.50;;;;;;5070034;28;20505;-68
2024/01/21 06:46:46;;;;;;;8.40;6.17;;;2.10;94.80;;;;;;5085019;28;20043;-67
2024/01/21 06:49:12;;;;;;;9.33;6.70;;;2.10;95.20;;;;;;5070300;28;20044;-68
2024/01/21 06:51:46;;;;;;;8.57;6.43;;;2.00;95.30;;;;;;5070632;28;20079;-67
2024/01/21 06:54:13;;;;;;;9.15;6.60;;;2.00;95.50;;;;;;5069873;28;20161;-67
2024/01/21 06:56:39;;;;;;;9.10;6.40;;;2.00;95.70;;;;;;5088705;28;20126;-68
2024/01/21 06:59:05;;;;;;;9.05;6.63;;;2.00;95.70;;;;;;5085429;28;20150;-68
2024/01/21 07:01:30;;;;;;;8.50;6.05;;;2.00;95.50;;;;;;5089766;28;20044;-67
2024/01/21 07:03:56;;;;;;;9.07;6.68;;;2.00;95.80;;;;;;5068949;28;20047;-67
2024/01/21 07:06:22;;;;;;;9.20;6.68;;;2.00;96.00;;;;;;5089072;28;20257;-68
2024/01/21 07:08:48;;;;;;;8.93;6.80;;;2.00;95.90;;;;;;5086163;28;20120;-67
2024/01/21 07:11:13;;;;;;;8.40;6.40;;;2.00;96.10;;;;;;5080270;28;20130;-69
2024/01/21 07:13:39;;;;;;;9.27;6.72;;;2.00;95.80;;;;;;5070948;28;20058;-67
2024/01/21 07:16:05;;;;;;;9.10;6.65;;;2.00;96.10;;;;;;5087689;28;20036;-67
2024/01/21 07:18:31;;;;;;;9.23;6.82;;;2.00;96.30;;;;;;5085671;28;20096;-67
2024/01/21 07:20:56;;;;;;;9.25;6.93;;;2.00;96.30;;;;;;5087789;28;20043;-67
2024/01/21 07:23:22;;;;;;;9.13;7.25;;;2.00;96.10;;;;;;5089043;28;20036;-67
2024/01/21 07:25:48;;;;;;;9.23;6.57;;;2.00;96.60;;;;;;5078269;28;20436;-68
2024/01/21 07:28:15;;;;;;;9.18;6.40;;;1.90;96.70;;;;;;5087781;28;20131;-68
2024/01/21 07:30:45;;;;;;;11.05;6.60;;;1.90;97.00;;;;;;5084482;28;20039;-68
2024/01/21 07:33:11;;;;;;;9.20;7.13;;;2.00;96.60;;;;;;5087659;28;20410;-68
2024/01/21 07:35:37;;;;;;;9.45;6.88;;;2.00;96.70;;;;;;5083703;28;20039;-68
2024/01/21 07:38:03;;;;;;;9.68;6.95;;;2.00;96.90;;;;;;5084877;28;20035;-68
2024/01/21 07:40:30;;;;;;;10.18;7.25;;;1.90;97.20;;;;;;5085749;28;20048;-68
2024/01/21 07:42:56;;;;;;;10.30;6.90;;;1.90;97.30;;;;;;5086118;28;20395;-68
2024/01/21 07:45:21;;;;;;;9.43;6.93;;;1.90;97.20;;;;;;5102236;28;20344;-68
2024/01/21 07:47:47;;;;;;;8.85;6.47;;;1.90;97.60;;;;;;5066692;28;20401;-69
2024/01/21 07:50:13;;;;;;;9.63;7.25;;;1.90;97.70;;;;;;5084848;28;20051;-68
2024/01/21 07:52:39;;;;;;;9.40;6.97;;;2.00;97.50;;;;;;5086871;28;20048;-67
2024/01/21 07:55:05;;;;;;;8.35;6.80;;;1.90;97.60;;;;;;5082759;28;20043;-68
2024/01/21 07:57:30;;;;;;;8.80;6.75;;;1.90;97.70;;;;;;5085756;28;20451;-68
2024/01/21 07:59:56;;;;;;;9.83;7.00;;;2.00;97.80;;;;;;5075059;28;20058;-68
2024/01/21 08:02:26;;;;;;;9.07;6.72;;;2.00;98.10;;;;;;5102945;28;20043;-68
2024/01/21 08:04:52;;;;;;;;;;;2.00;98.20;;;;;;5079061;28;20044;-68
2024/01/21 08:07:18;;;;;;;8.85;7.07;;;1.90;98.40;;;;;;5103110;28;19924;-68
2024/01/21 08:09:43;;;;;;;10.55;7.60;;;2.00;98.20;;;;;;5085397;28;20451;-68
2024/01/21 08:12:09;;;;;;;10.20;7.40;;;2.00;98.20;;;;;;5085546;28;20099;-68
2024/01/21 08:14:35;;;;;;;9.52;6.82;;;2.00;99.10;;;;;;5087047;28;20050;-68
2024/01/21 08:17:00;;;;;;;9.27;7.25;;;2.00;99.90;;;;;;5075415;28;20040;-67
2024/01/21 08:19:26;;;;;;;8.23;6.70;;;2.00;99.90;;;;;;5085798;28;20393;-66
2024/01/21 08:21:52;;;;;;;10.23;7.35;;;2.00;99.90;;;;;;5067434;28;20036;-69
2024/01/21 08:24:18;;;;;;;9.30;6.97;;;2.00;99.90;;;;;;5085113;28;20450;-68
2024/01/21 08:26:44;;;;;;;12.18;7.75;;;2.00;99.90;;;;;;5089693;28;20097;-68
2024/01/21 08:29:09;;;;;;;9.82;7.13;;;2.00;99.90;;;;;;5089748;28;20195;-68
2024/01/21 08:31:42;;;;;;;10.07;7.63;;;2.00;99.90;;;;;;5089576;28;20051;-68
2024/01/21 08:34:08;;;;;;;11.23;7.57;;;2.00;99.90;;;;;;5085910;28;20040;-67
2024/01/21 08:36:34;;;;;;;8.20;6.80;;;2.10;99.90;;;;;;5102818;28;20054;-67
2024/01/21 08:38:59;;;;;;;9.45;7.22;;;2.10;99.90;;;;;;5091713;28;20047;-69
2024/01/21 08:41:25;;;;;;;8.63;6.85;;;2.10;99.90;;;;;;5090674;28;20043;-67
2024/01/21 08:43:51;;;;;;;9.35;7.30;;;2.00;99.90;;;;;;5091037;28;20043;-67
2024/01/21 08:46:16;;;;;;;9.43;7.28;;;2.10;99.90;;;;;;5072041;28;20051;-68
2024/01/21 08:48:44;;;;;;;9.25;7.05;;;2.00;99.90;;;;;;5088753;28;20043;-67
2024/01/21 08:51:09;;;;;;;9.13;7.30;;;2.10;99.90;;;;;;5070449;28;20046;-67
2024/01/21 08:53:35;;;;;;;8.35;6.57;;;2.20;99.90;;;;;;5091587;28;20047;-68
2024/01/21 08:56:01;;;;;;;10.15;7.40;;;2.10;99.90;;;;;;5089004;28;21068;-67
2024/01/21 08:58:27;;;;;;;12.82;8.20;;;2.20;99.90;;;;;;5090321;28;20047;-69
2024/01/21 09:00:52;;;;;;;9.82;7.07;;;2.20;99.90;;;;;;5091552;28;20036;-69
2024/01/21 09:03:18;;;;;;;11.27;7.78;;;2.30;99.90;;;;;;5090276;28;20509;-67
2024/01/21 09:05:44;;;;;;;9.32;7.30;;;2.30;99.90;;;;;;5089741;28;20063;-69
2024/01/21 09:08:09;;;;;;;9.45;7.50;;;2.30;99.90;;;;;;5072011;28;20489;-67
2024/01/21 09:10:35;;;;;;;10.32;7.80;;;2.30;99.90;;;;;;5088652;28;20063;-69
2024/01/21 09:13:01;;;;;;;9.13;7.60;;;2.40;99.90;;;;;;5068402;28;20040;-67
2024/01/21 09:15:27;;;;;;;10.75;8.23;;;2.40;99.90;;;;;;5085282;28;20055;-67
2024/01/21 09:17:52;;;;;;;10.48;7.78;;;2.50;99.90;;;;;;5072622;28;20131;-68
2024/01/21 09:20:19;;;;;;;9.30;7.38;;;2.50;99.90;;;;;;5085656;28;20047;-68
2024/01/21 09:22:45;;;;;;;9.27;7.72;;;2.50;99.90;;;;;;5086414;28;20063;-68
2024/01/21 09:25:10;;;;;;;10.68;7.82;;;2.50;99.90;;;;;;5088116;28;20051;-67
2024/01/21 09:27:36;;;;;;;8.85;7.47;;;2.50;99.90;;;;;;5088657;28;20108;-69
2024/01/21 09:30:03;;;;;;;9.32;7.28;;;2.50;99.90;;;;;;5087797;28;20059;-68
2024/01/21 09:32:29;;;;;;;9.70;7.30;;;2.50;99.90;;;;;;5087288;28;20126;-68
2024/01/21 09:34:54;;;;;;;9.80;7.70;;;2.50;99.90;;;;;;5089193;28;20138;-68
2024/01/21 09:37:20;;;;;;;10.07;7.82;;;2.50;99.90;;;;;;5086661;28;20503;-68
2024/01/21 09:39:46;;;;;;;10.05;7.57;;;2.50;99.90;;;;;;5072255;28;20039;-68
2024/01/21 09:42:16;;;;;;;9.90;7.38;;;2.60;99.90;;;;;;5088233;28;20036;-69
2024/01/21 09:44:42;;;;;;;9.32;7.40;;;2.60;99.90;;;;;;5082660;28;20462;-68
2024/01/21 09:47:09;;;;;;;8.88;7.30;;;2.70;99.90;;;;;;5079735;28;20043;-68
2024/01/21 09:49:37;;;;;;;10.18;7.57;;;2.70;99.90;;;;;;5086191;28;20043;-68
2024/01/21 09:52:04;;;;;;;10.70;8.27;;;2.80;99.90;;;;;;5069649;28;20421;-68
2024/01/21 09:54:30;;;;;;;10.48;8.35;;;2.80;99.90;;;;;;5067444;28;20234;-68
2024/01/21 09:56:56;;;;;;;10.00;7.75;;;2.90;99.90;;;;;;5066030;28;20404;-68
2024/01/21 09:59:22;;;;;;;9.40;7.82;;;2.90;99.90;;;;;;5087009;28;20668;-68
2024/01/21 10:01:48;;;;;;;10.27;8.02;;;2.90;99.90;;;;;;5090437;28;20035;-68
2024/01/21 10:04:14;;;;;;;9.20;7.43;;;2.90;99.90;;;;;;5084660;28;20914;-68
2024/01/21 10:06:40;;;;;;;10.93;7.90;;;3.00;99.90;;;;;;5096543;28;20138;-68
2024/01/21 10:09:22;;;;;;;10.30;7.93;;;3.00;99.90;;;;;;5081020;28;20488;-68
2024/01/21 10:12:00;;;;;;;11.40;8.30;;;3.10;99.90;;;;;;5086241;28;20035;-69
2024/01/21 10:14:31;;;;;;;11.10;8.05;;;3.10;99.90;;;;;;5087125;28;20035;-68
2024/01/21 10:17:00;;;;;;;8.93;7.43;;;3.20;99.90;;;;;;5085536;28;20051;-68
2024/01/21 10:19:33;;;;;;;11.05;8.13;;;3.20;99.90;;;;;;5084752;28;20043;-68
2024/01/21 10:22:15;;;;;;;9.57;7.78;;;3.30;99.90;;;;;;5082921;28;20130;-68
2024/01/21 10:24:42;;;;;;;9.80;7.97;;;3.30;99.90;;;;;;5090235;28;20048;-68
2024/01/21 10:27:09;;;;;;;9.90;7.95;;;3.30;99.90;;;;;;5068987;28;20051;-68
2024/01/21 10:29:37;;;;;;;9.80;8.02;;;3.30;99.90;;;;;;5087155;28;20074;-68
2024/01/21 10:32:03;;;;;;;10.85;8.20;;;3.40;99.90;;;;;;5085076;28;20044;-68
2024/01/21 10:34:29;;;;;;;10.05;8.02;;;3.40;99.90;;;;;;5087773;28;20104;-68
2024/01/21 10:37:02;;;;;;;10.70;8.38;;;3.40;99.90;;;;;;5092976;28;20517;-67
2024/01/21 10:39:32;;;;;;;9.05;7.90;;;3.40;99.90;;;;;;5102949;28;20533;-68
2024/01/21 10:42:00;;;;;;;10.88;8.48;;;3.50;99.90;;;;;;5088316;28;20447;-67
2024/01/21 10:44:29;;;;;;;9.45;7.85;;;3.50;99.90;;;;;;5091955;28;20031;-68
2024/01/21 10:46:56;;;;;;;10.73;7.70;;;3.50;99.90;;;;;;5077773;28;20501;-68
2024/01/21 10:49:22;;;;;;;10.15;8.30;;;3.50;99.90;;;;;;5086718;28;20054;-68
2024/01/21 10:51:51;;;;;;;10.15;7.65;;;3.50;99.90;;;;;;5086075;28;20357;-68
2024/01/21 10:54:18;;;;;;;10.55;8.20;;;3.60;99.90;;;;;;5073153;28;20107;-67
2024/01/21 10:56:43;;;;;;;9.43;8.07;;;3.60;99.90;;;;;;5066340;28;20533;-67
2024/01/21 10:59:13;;;;;;;9.82;8.30;;;3.70;99.90;;;;;;5091162;28;20043;-67
2024/01/21 11:01:43;;;;;;;10.33;8.83;;;3.70;99.90;;;;;;5085214;28;20775;-68
2024/01/21 11:04:12;;;;;;;11.02;8.05;;;3.70;99.90;;;;;;5086257;28;20126;-68
2024/01/21 11:06:48;;;;;;;10.50;8.30;;;3.80;99.90;;;;;;5076006;28;20036;-68
2024/01/21 11:09:22;;;;;;;9.10;7.55;;;3.80;99.90;;;;;;5085361;28;20479;-68
2024/01/21 11:11:52;;;;;;;10.30;8.05;;;3.80;99.90;;;;;;5076106;28;20043;-67
2024/01/21 11:14:35;;;;;;;10.00;8.63;;;3.80;99.90;;;;;;5101858;28;20047;-70
2024/01/21 11:17:06;;;;;;;11.90;8.60;;;3.90;99.90;;;;;;5082462;28;20069;-70
2024/01/21 11:19:47;;;;;;;10.48;8.15;;;3.90;99.90;;;;;;5076991;28;20047;-68
2024/01/21 11:22:14;;;;;;;10.18;8.27;;;3.90;99.90;;;;;;5085094;28;20047;-68
2024/01/21 11:24:41;;;;;;;10.35;7.95;;;3.80;99.90;;;;;;5085160;28;20031;-68
2024/01/21 11:27:26;;;;;;;10.70;8.32;;;3.90;99.90;;;;;;5082061;28;20378;-68
2024/01/21 11:30:00;;;;;;;9.85;8.13;;;3.90;99.90;;;;;;5069156;28;20528;-69
2024/01/21 11:32:28;;;;;;;12.23;8.45;;;3.90;99.90;;;;;;5083465;28;20105;-68
2024/01/21 11:34:58;;;;;;;11.90;8.75;;;3.90;99.90;;;;;;5093087;28;20063;-68
2024/01/21 11:37:23;;;;;;;10.98;8.70;;;4.00;99.90;;;;;;5085239;28;20488;-68
2024/01/21 11:39:49;;;;;;;10.25;7.97;;;4.00;99.90;;;;;;5094559;28;20096;-69
2024/01/21 11:42:15;;;;;;;10.57;8.50;;;4.00;99.90;;;;;;5090924;28;20036;-69
2024/01/21 11:44:41;;;;;;;9.95;7.95;;;4.00;99.90;;;;;;5081127;28;20394;-69
2024/01/21 11:47:08;;;;;;;10.60;8.57;;;4.00;99.90;;;;;;5084781;28;20092;-68
2024/01/21 11:49:35;;;;;;;11.00;8.32;;;4.00;99.90;;;;;;5080392;28;20043;-68
2024/01/21 11:52:06;;;;;;;11.23;8.88;;;4.00;99.90;;;;;;5089416;28;20043;-68
2024/01/21 11:54:36;;;;;;;11.18;8.93;;;4.00;99.90;;;;;;5081864;28;20048;-68
2024/01/21 11:57:02;;;;;;;11.30;8.75;;;4.00;99.90;;;;;;5081202;28;20035;-68
2024/01/21 11:59:30;;;;;;;10.93;9.57;;;4.10;99.90;;;;;;5074695;28;20130;-68
2024/01/21 12:01:57;;;;;;;12.10;9.18;;;4.10;99.90;;;;;;5087999;28;20484;-68
2024/01/21 12:04:24;;;;;;;12.10;9.48;;;4.10;99.90;;;;;;5083055;28;20264;-68
2024/01/21 12:06:52;;;;;;;12.60;10.35;;;4.10;99.90;;;;;;5082497;28;20031;-68
2024/01/21 12:09:18;;;;;;;12.30;9.27;;;4.20;99.90;;;;;;5073407;28;20452;-70
2024/01/21 12:11:54;;;;;;;11.13;9.13;;;4.10;99.90;;;;;;5069233;28;20043;-67
2024/01/21 12:14:26;;;;;;;12.35;9.90;;;4.10;99.90;;;;;;5082349;28;20113;-68
2024/01/21 12:17:02;;;;;;;11.68;9.57;;;4.10;99.90;;;;;;5088381;28;20039;-68
2024/01/21 12:19:34;;;;;;;11.20;10.05;;;4.10;99.90;;;;;;5071460;28;20122;-68
2024/01/21 12:22:03;;;;;;;13.02;10.05;;;4.00;99.90;;;;;;5063936;28;20032;-68
2024/01/21 12:24:43;;;;;;;12.75;10.15;;;4.10;99.90;;;;;;5069001;28;20528;-68
2024/01/21 12:27:18;;;;;;;13.05;9.70;;;4.10;99.90;;;;;;5070170;28;20063;-68
2024/01/21 12:29:48;;;;;;;12.32;9.68;;;4.10;99.90;;;;;;5073768;28;20047;-68
2024/01/21 12:32:14;;;;;;;;;;;4.20;99.90;;;;;;5074661;28;20290;-68
2024/01/21 12:34:43;;;;;;;12.68;9.95;;;4.20;99.90;;;;;;5068681;28;19929;-69
2024/01/21 12:37:22;;;;;;;11.38;9.75;;;4.20;99.90;;;;;;5063611;28;20838;-70
2024/01/21 12:39:51;;;;;;;12.13;10.15;;;4.20;99.90;;;;;;5106453;28;20054;-70
2024/01/21 12:42:17;;;;;;;11.60;9.85;;;4.30;99.90;;;;;;5072459;28;20652;-68
2024/01/21 12:44:56;;;;;;;12.13;10.18;;;4.20;99.90;;;;;;5070628;28;20130;-70
2024/01/21 12:47:42;;;;;;;11.05;9.35;;;4.30;99.90;;;;;;5085683;28;20083;-67
2024/01/21 12:50:14;;;;;;;12.80;9.82;;;4.30;99.90;;;;;;5065441;28;20035;-69